Time;durP1;ratioP1;P1;durP2;ratioP2;P2;SDS_P1;SDS_P2;PMS_P1;PMS_P2;Temp;Humidity;BMP_temperature;BMP_pressure;BME280_temperature;BME280_humidity;BME280_pressure;Samples;Min_cycle;Max_cycle;Signal;HPM_P1;HPM_P2
2022/12/19 00:01:18;;;;;;;;;;;;;;;14.28;68.48;103136.75;7401412;19;981;-65
2022/12/19 00:03:50;;;;;;;;;;;;;;;14.29;68.65;103157.09;7398688;19;1035;-65
2022/12/19 00:06:19;;;;;;;;;;;;;;;14.28;68.40;103158.03;7401799;19;994;-66
2022/12/19 00:08:49;;;;;;;;;;;;;;;14.30;68.44;103163.28;7401589;19;993;-66
2022/12/19 00:11:18;;;;;;;;;;;;;;;14.27;68.64;103158.94;7400748;19;1841;-66
2022/12/19 00:13:46;;;;;;;;;;;;;;;14.28;68.73;103171.34;7401137;19;1025;-66
2022/12/19 00:16:16;;;;;;;;;;;;;;;14.27;68.41;103172.25;7400954;19;1092;-66
2022/12/19 00:18:45;;;;;;;;;;;;;;;14.26;68.55;103167.84;7401308;19;995;-66
2022/12/19 00:21:17;;;;;;;;;;;;;;;14.29;68.47;103183.72;7400868;19;921;-66
2022/12/19 00:23:45;;;;;;;;;;;;;;;14.27;68.42;103171.38;7401373;19;955;-66
2022/12/19 00:26:14;;;;;;;;;;;;;;;14.29;68.31;103180.19;7401291;19;1010;-66
2022/12/19 00:28:43;;;;;;;;;;;;;;;14.26;68.35;103167.84;7400717;19;968;-66
2022/12/19 00:31:13;;;;;;;;;;;;;;;14.24;68.49;103168.81;7400321;19;1853;-65
2022/12/19 00:33:41;;;;;;;;;;;;;;;14.26;68.46;103178.47;7401104;19;1002;-65
2022/12/19 00:36:12;;;;;;;;;;;;;;;14.30;68.49;103174.84;7399838;19;1060;-66
2022/12/19 00:38:45;;;;;;;;;;;;;;;14.27;68.64;103188.22;7256191;19;2809124;-66
2022/12/19 00:41:14;;;;;;;;;;;;;;;14.24;68.42;103185.63;7402359;19;1098;-65
2022/12/19 00:43:42;;;;;;;;;;;;;;;14.29;68.73;103186.38;7401823;19;1170;-66
2022/12/19 00:46:13;;;;;;;;;;;;;;;14.23;68.29;103178.59;7402325;19;927;-66
2022/12/19 00:48:41;;;;;;;;;;;;;;;14.21;68.40;103175.09;7402236;19;931;-66
2022/12/19 00:51:11;;;;;;;;;;;;;;;14.21;68.46;103175.09;7401438;19;1849;-66
2022/12/19 00:53:43;;;;;;;;;;;;;;;14.24;68.56;103164.34;7401967;19;893;-66
2022/12/19 00:56:13;;;;;;;;;;;;;;;14.22;68.59;103166.19;7401990;19;1156;-66
2022/12/19 00:58:41;;;;;;;;;;;;;;;14.23;68.57;103169.75;7401954;19;994;-66
2022/12/19 01:01:11;;;;;;;;;;;;;;;14.23;68.19;103167.94;7398638;19;1311;-66
2022/12/19 01:03:40;;;;;;;;;;;;;;;14.28;68.47;103175.78;7400815;19;1324;-65
2022/12/19 01:06:08;;;;;;;;;;;;;;;14.22;68.29;103158.19;7401179;19;984;-66
2022/12/19 01:08:37;;;;;;;;;;;;;;;14.24;68.28;103174.13;7401635;19;1011;-66
2022/12/19 01:11:08;;;;;;;;;;;;;;;14.26;68.17;103173.16;7401502;19;1846;-66
2022/12/19 01:13:35;;;;;;;;;;;;;;;14.20;68.39;103168.03;7400933;19;1022;-66
2022/12/19 01:16:04;;;;;;;;;;;;;;;14.20;68.36;103183.97;7401013;19;984;-66
2022/12/19 01:18:33;;;;;;;;;;;;;;;14.21;68.38;103180.41;7401370;19;998;-66
2022/12/19 01:21:02;;;;;;;;;;;;;;;14.21;68.14;103183.09;7401373;19;923;-66
2022/12/19 01:23:30;;;;;;;;;;;;;;;14.25;68.30;103184.75;7400871;19;940;-66
2022/12/19 01:25:58;;;;;;;;;;;;;;;14.21;68.31;103184.88;7399296;19;901;-66
2022/12/19 01:28:29;;;;;;;;;;;;;;;14.22;68.32;103202.56;7398981;19;971;-66
2022/12/19 01:30:58;;;;;;;;;;;;;;;14.20;67.90;103189.31;7401104;19;968;-66
2022/12/19 01:33:26;;;;;;;;;;;;;;;14.21;68.14;103199.06;7398677;19;1836;-66
2022/12/19 01:35:54;;;;;;;;;;;;;;;14.26;68.36;103204.22;7400814;19;1036;-66
2022/12/19 01:38:23;;;;;;;;;;;;;;;14.21;68.36;103209.69;7398598;19;1395;-66
2022/12/19 01:40:52;;;;;;;;;;;;;;;14.24;67.90;103222.91;7400404;19;837;-66
2022/12/19 01:43:21;;;;;;;;;;;;;;;14.22;68.29;103198.13;7400642;19;985;-65
2022/12/19 01:45:56;;;;;;;;;;;;;;;14.19;68.22;103195.56;7400296;19;1013;-66
2022/12/19 01:48:25;;;;;;;;;;;;;;;14.20;68.03;103215.06;7401500;19;989;-65
2022/12/19 01:50:56;;;;;;;;;;;;;;;14.17;68.11;103213.38;7407696;19;948;-66
2022/12/19 01:53:27;;;;;;;;;;;;;;;14.15;68.25;103223.19;7404842;19;1858;-66
2022/12/19 01:55:56;;;;;;;;;;;;;;;14.18;68.26;103225.75;7407872;19;998;-66
2022/12/19 01:58:24;;;;;;;;;;;;;;;14.14;68.41;103221.41;7407367;19;989;-66
2022/12/19 02:00:55;;;;;;;;;;;;;;;14.13;68.30;103225.00;7407266;19;1046;-66
2022/12/19 02:03:26;;;;;;;;;;;;;;;14.13;68.45;103209.91;7407275;19;937;-65
2022/12/19 02:05:55;;;;;;;;;;;;;;;14.18;68.50;103196.47;7407097;19;865;-66
2022/12/19 02:08:25;;;;;;;;;;;;;;;14.14;68.35;103226.75;7404795;19;2034;-65
2022/12/19 02:10:53;;;;;;;;;;;;;;;14.16;68.17;103226.69;7407495;19;992;-65
2022/12/19 02:13:22;;;;;;;;;;;;;;;14.13;68.38;103230.34;7404701;19;1838;-65
2022/12/19 02:15:53;;;;;;;;;;;;;;;14.16;68.40;103230.22;7406962;19;889;-66
2022/12/19 02:18:30;;;;;;;;;;;;;;;14.12;68.39;103231.22;7407035;19;1022;-65
2022/12/19 02:21:14;;;;;;;;;;;;;;;14.13;68.48;103233.84;7406557;19;940;-66
2022/12/19 02:23:57;;;;;;;;;;;;;;;14.14;68.02;103237.38;7406605;19;1078;-66
2022/12/19 02:26:38;;;;;;;;;;;;;;;14.14;68.04;103256.00;7404361;19;1036;-66
2022/12/19 02:29:16;;;;;;;;;;;;;;;14.16;68.18;103240.88;7406691;19;1003;-66
2022/12/19 02:31:49;;;;;;;;;;;;;;;14.19;67.99;103251.44;7405942;19;1862;-66
2022/12/19 02:34:21;;;;;;;;;;;;;;;14.16;67.94;103246.19;7406272;19;1040;-66
2022/12/19 02:36:52;;;;;;;;;;;;;;;14.18;67.95;103255.00;7405770;19;1429;-66
2022/12/19 02:39:24;;;;;;;;;;;;;;;14.21;67.79;103254.06;7406469;19;1006;-65
2022/12/19 02:41:57;;;;;;;;;;;;;;;14.17;67.86;103252.41;7405836;19;1067;-66
2022/12/19 02:44:27;;;;;;;;;;;;;;;14.15;68.09;103240.94;7405882;19;1020;-66
2022/12/19 02:46:59;;;;;;;;;;;;;;;14.14;67.99;103232.06;7408468;19;1411;-66
2022/12/19 02:49:29;;;;;;;;;;;;;;;14.12;68.28;103247.19;7404971;19;955;-66
2022/12/19 02:51:57;;;;;;;;;;;;;;;14.12;68.39;103244.53;7405170;19;1850;-66
2022/12/19 02:54:26;;;;;;;;;;;;;;;14.14;68.12;103253.34;7404516;19;1055;-65
2022/12/19 02:56:57;;;;;;;;;;;;;;;14.12;68.07;103234.78;7405456;19;993;-65
2022/12/19 02:59:36;;;;;;;;;;;;;;;14.10;68.04;103257.88;7405235;19;997;-66
2022/12/19 03:02:11;;;;;;;;;;;;;;;14.12;68.33;103256.09;7403401;19;3278;-80
2022/12/19 03:04:47;;;;;;;;;;;;;;;14.10;68.29;103249.03;7405357;19;956;-79
2022/12/19 03:07:22;;;;;;;;;;;;;;;14.07;68.21;103249.13;7406119;19;994;-81
2022/12/19 03:09:54;;;;;;;;;;;;;;;14.10;68.29;103255.22;7403075;19;1480;-79
2022/12/19 03:12:26;;;;;;;;;;;;;;;14.10;68.02;103251.69;7404870;19;1852;-79
2022/12/19 03:14:55;;;;;;;;;;;;;;;14.10;67.89;103254.34;7405490;19;1011;-80
2022/12/19 03:17:26;;;;;;;;;;;;;;;14.06;68.34;103248.25;7405042;19;1034;-80
2022/12/19 03:19:57;;;;;;;;;;;;;;;14.07;67.82;103251.78;7405540;19;956;-80
2022/12/19 03:22:26;;;;;;;;;;;;;;;14.08;67.96;103258.84;7405797;19;979;-79
2022/12/19 03:24:54;;;;;;;;;;;;;;;14.11;67.89;103285.38;7405894;19;1034;-81
2022/12/19 03:27:27;;;;;;;;;;;;;;;14.08;68.04;103283.66;7405280;19;1030;-81
2022/12/19 03:29:58;;;;;;;;;;;;;;;14.08;68.01;103285.44;7405253;19;1113;-80
2022/12/19 03:32:30;;;;;;;;;;;;;;;14.08;68.26;103270.34;7404096;19;1845;-79
2022/12/19 03:35:03;;;;;;;;;;;;;;;14.09;68.19;103272.13;7404598;19;1035;-80
2022/12/19 03:37:33;;;;;;;;;;;;;;;14.08;68.16;103258.84;7404496;19;991;-80
2022/12/19 03:40:03;;;;;;;;;;;;;;;14.09;67.86;103280.09;7403588;19;1377;-80
2022/12/19 03:45:17;;;;;;;;;;;;;;;14.08;67.67;103266.81;7404946;19;670;-80
2022/12/19 03:47:50;;;;;;;;;;;;;;;14.08;67.93;103274.81;7404226;19;1042;-79
2022/12/19 03:50:19;;;;;;;;;;;;;;;14.07;67.84;103268.63;7405240;19;1013;-80
2022/12/19 03:52:54;;;;;;;;;;;;;;;14.07;67.85;103278.41;7402981;19;1842;-80
2022/12/19 03:55:25;;;;;;;;;;;;;;;14.08;68.09;103269.50;7404614;19;1003;-80
2022/12/19 03:57:58;;;;;;;;;;;;;;;14.04;67.97;103271.34;7403603;19;1411;-79
2022/12/19 04:00:26;;;;;;;;;;;;;;;14.04;67.95;103268.69;7404187;19;1261;-80
2022/12/19 04:02:59;;;;;;;;;;;;;;;14.05;68.13;103280.22;7401927;19;1473;-80
2022/12/19 04:05:29;;;;;;;;;;;;;;;14.01;68.02;103289.22;7403823;19;939;-81
2022/12/19 04:07:59;;;;;;;;;;;;;;;14.04;68.16;103305.94;7403802;19;960;-80
2022/12/19 04:10:28;;;;;;;;;;;;;;;14.04;67.87;103307.75;7403262;19;980;-80
2022/12/19 04:12:59;;;;;;;;;;;;;;;14.05;68.03;103309.50;7401110;19;1857;-80
2022/12/19 04:15:33;;;;;;;;;;;;;;;14.07;68.09;103308.53;7402775;19;943;-81
2022/12/19 04:18:07;;;;;;;;;;;;;;;14.03;68.12;103314.84;7402762;19;959;-80
2022/12/19 04:20:37;;;;;;;;;;;;;;;14.01;67.92;103321.13;7401304;19;1383;-80
2022/12/19 04:23:08;;;;;;;;;;;;;;;14.02;67.97;103317.53;7415697;19;951;-79
2022/12/19 04:25:44;;;;;;;;;;;;;;;14.02;67.74;103328.19;7418641;19;973;-82
2022/12/19 04:28:16;;;;;;;;;;;;;;;14.01;67.68;103329.13;7403327;19;956;-79
2022/12/19 04:30:46;;;;;;;;;;;;;;;14.02;67.72;103322.88;7402610;19;1019;-79
2022/12/19 04:33:18;;;;;;;;;;;;;;;14.02;67.94;103337.03;7401947;19;1834;-79
2022/12/19 04:35:47;;;;;;;;;;;;;;;14.01;67.91;103337.09;7402664;19;992;-81
2022/12/19 04:38:15;;;;;;;;;;;;;;;14.01;67.79;103329.13;7403170;19;947;-79
2022/12/19 04:40:43;;;;;;;;;;;;;;;14.02;67.91;103338.84;7403190;19;1082;-79
2022/12/19 04:43:12;;;;;;;;;;;;;;;14.04;67.68;103340.53;7403470;19;955;-80
2022/12/19 04:45:42;;;;;;;;;;;;;;;14.00;68.01;103340.66;7402958;19;971;-80
2022/12/19 04:48:11;;;;;;;;;;;;;;;13.99;67.64;103349.56;7401541;19;1585;-79
2022/12/19 04:50:43;;;;;;;;;;;;;;;14.04;67.74;103358.28;7402955;19;967;-79
2022/12/19 04:53:11;;;;;;;;;;;;;;;13.98;67.78;103354.00;7401812;19;1850;-81
2022/12/19 04:55:41;;;;;;;;;;;;;;;13.99;67.78;103347.78;7402638;19;1063;-79
2022/12/19 04:58:09;;;;;;;;;;;;;;;13.97;67.78;103346.94;7402799;19;1015;-79
2022/12/19 05:00:37;;;;;;;;;;;;;;;13.97;67.82;103365.56;7402285;19;1477;-81
2022/12/19 05:03:06;;;;;;;;;;;;;;;14.00;67.90;103361.94;7400992;19;1165;-80
2022/12/19 05:05:34;;;;;;;;;;;;;;;13.98;67.97;103363.78;7402081;19;1095;-80
2022/12/19 05:08:07;;;;;;;;;;;;;;;13.96;67.49;103371.78;7402426;19;968;-80
2022/12/19 05:10:37;;;;;;;;;;;;;;;13.99;67.69;103354.88;7400647;19;1486;-80
2022/12/19 05:13:08;;;;;;;;;;;;;;;13.99;67.78;103381.50;7401456;19;1839;-79
2022/12/19 05:15:36;;;;;;;;;;;;;;;13.92;67.44;103365.66;7402166;19;1006;-79
2022/12/19 05:18:06;;;;;;;;;;;;;;;13.96;67.69;103382.41;7402066;19;1460;-81
2022/12/19 05:20:34;;;;;;;;;;;;;;;13.95;67.67;103377.13;7401542;19;1051;-79
2022/12/19 05:23:03;;;;;;;;;;;;;;;13.93;67.72;103388.69;7404004;19;1113;-80
2022/12/19 05:25:34;;;;;;;;;;;;;;;13.93;67.66;103387.84;7409757;19;1492;-79
2022/12/19 05:28:03;;;;;;;;;;;;;;;13.97;67.73;103393.97;7407473;19;1098;-79
2022/12/19 05:30:32;;;;;;;;;;;;;;;13.96;67.65;103409.03;7409303;19;1038;-81
2022/12/19 05:33:01;;;;;;;;;;;;;;;13.95;67.78;103403.72;7408134;19;1868;-82
2022/12/19 05:35:31;;;;;;;;;;;;;;;13.92;67.44;103397.56;7409112;19;1408;-80
2022/12/19 05:38:00;;;;;;;;;;;;;;;13.96;67.76;103398.38;7408435;19;1119;-81
2022/12/19 05:40:28;;;;;;;;;;;;;;;13.97;67.44;103405.47;7408885;19;909;-80
2022/12/19 05:43:00;;;;;;;;;;;;;;;13.99;67.38;103410.75;7408664;19;1071;-79
2022/12/19 05:45:28;;;;;;;;;;;;;;;13.96;67.66;103402.84;7409153;19;1029;-80
2022/12/19 05:47:56;;;;;;;;;;;;;;;13.95;67.40;103417.94;7409439;19;992;-79
2022/12/19 05:50:25;;;;;;;;;;;;;;;13.94;67.27;103413.50;7408574;19;972;-80
2022/12/19 05:52:53;;;;;;;;;;;;;;;13.95;67.26;103411.72;7404928;19;1842;-79
2022/12/19 05:55:21;;;;;;;;;;;;;;;13.96;67.55;103419.66;7408622;19;1035;-80
2022/12/19 05:57:50;;;;;;;;;;;;;;;13.95;67.60;103425.00;7407740;19;992;-80
2022/12/19 06:00:21;;;;;;;;;;;;;;;13.93;67.44;103417.97;7407839;19;1063;-79
2022/12/19 06:02:49;;;;;;;;;;;;;;;13.91;67.52;103427.78;7405198;19;1414;-80
2022/12/19 06:05:18;;;;;;;;;;;;;;;13.93;67.64;103430.41;7407680;19;924;-80
2022/12/19 06:07:46;;;;;;;;;;;;;;;13.90;67.56;103436.66;7407283;19;1087;-79
2022/12/19 06:10:15;;;;;;;;;;;;;;;13.89;67.62;103442.03;7407918;19;1076;-80
2022/12/19 06:12:44;;;;;;;;;;;;;;;13.90;67.40;103436.66;7407364;19;1821;-81
2022/12/19 06:15:12;;;;;;;;;;;;;;;13.90;67.38;103441.97;7408214;19;1031;-80
2022/12/19 06:17:43;;;;;;;;;;;;;;;13.88;67.59;103443.78;7407421;19;963;-81
2022/12/19 06:20:12;;;;;;;;;;;;;;;13.91;67.35;103446.38;7407267;19;948;-81
2022/12/19 06:22:40;;;;;;;;;;;;;;;13.91;67.49;103449.06;7407147;19;1000;-82
2022/12/19 06:25:09;;;;;;;;;;;;;;;13.87;67.35;103447.38;7406808;19;956;-80
2022/12/19 06:27:38;;;;;;;;;;;;;;;13.86;67.22;103452.72;7407369;19;1006;-81
2022/12/19 06:30:08;;;;;;;;;;;;;;;13.90;67.46;103457.94;7406370;19;1043;-81
2022/12/19 06:32:36;;;;;;;;;;;;;;;13.87;67.18;103466.00;7424697;19;946;-79
2022/12/19 06:35:07;;;;;;;;;;;;;;;13.87;67.24;103473.97;7416460;19;1822;-80
2022/12/19 06:37:39;;;;;;;;;;;;;;;13.87;67.54;103468.66;7406315;19;956;-80
2022/12/19 06:42:21;;;;;;;;;;;;;;;13.86;67.26;103474.88;7409478;19;1010;-79
2022/12/19 06:42:55;;;;;;;;;;;;;;;13.88;67.17;103475.72;7409056;19;940;-80
2022/12/19 06:45:24;;;;;;;;;;;;;;;13.88;67.49;103469.53;7409431;19;1009;-79
2022/12/19 06:47:53;;;;;;;;;;;;;;;13.86;67.58;103472.22;7408262;19;995;-79
2022/12/19 06:50:22;;;;;;;;;;;;;;;13.86;67.20;103479.31;7409220;19;1075;-78
2022/12/19 06:52:53;;;;;;;;;;;;;;;13.83;67.21;103464.31;7408960;19;1015;-80
2022/12/19 06:55:23;;;;;;;;;;;;;;;13.86;67.34;103495.28;7410468;19;962;-81
2022/12/19 06:57:51;;;;;;;;;;;;;;;13.81;67.34;103476.78;7408560;19;1090;-80
2022/12/19 07:00:21;;;;;;;;;;;;;;;13.84;67.20;103481.16;7407676;19;1451;-80
2022/12/19 07:02:52;;;;;;;;;;;;;;;13.86;67.12;103492.63;7407603;19;1288;-81
2022/12/19 07:05:21;;;;;;;;;;;;;;;13.87;67.15;103505.91;7409799;19;1133;-79
2022/12/19 07:07:49;;;;;;;;;;;;;;;13.86;67.19;103493.50;7409917;19;1046;-79
2022/12/19 07:10:20;;;;;;;;;;;;;;;13.83;67.13;103498.91;7409337;19;996;-80
2022/12/19 07:12:49;;;;;;;;;;;;;;;13.88;67.17;103514.75;7411234;19;1019;-79
2022/12/19 07:15:19;;;;;;;;;;;;;;;13.85;67.11;103513.03;7409642;19;1839;-80
2022/12/19 07:17:47;;;;;;;;;;;;;;;13.84;66.94;103513.94;7409666;19;1121;-79
2022/12/19 07:20:17;;;;;;;;;;;;;;;13.86;67.26;103525.41;7408415;19;1019;-80
2022/12/19 07:22:46;;;;;;;;;;;;;;;13.86;66.95;103514.75;7408637;19;952;-80
2022/12/19 07:25:16;;;;;;;;;;;;;;;13.82;66.97;103523.72;7406813;19;1029;-80
2022/12/19 07:27:48;;;;;;;;;;;;;;;13.86;67.23;103514.75;7407895;19;940;-80
2022/12/19 07:30:16;;;;;;;;;;;;;;;13.86;67.04;103524.53;7407454;19;999;-80
2022/12/19 07:32:47;;;;;;;;;;;;;;;13.87;67.12;103535.16;7407332;19;1054;-80
2022/12/19 07:35:21;;;;;;;;;;;;;;;13.89;66.88;103525.34;7408264;19;1826;-80
2022/12/19 07:37:50;;;;;;;;;;;;;;;13.91;66.68;103547.47;7406112;19;968;-80
2022/12/19 07:40:19;;;;;;;;;;;;;;;13.95;66.58;103555.38;7409152;19;1065;-80
2022/12/19 07:42:50;;;;;;;;;;;;;;;13.95;66.69;103547.38;7411388;19;1040;-79
2022/12/19 07:45:19;;;;;;;;;;;;;;;13.99;66.68;103522.50;7410028;19;1061;-80
2022/12/19 07:47:47;;;;;;;;;;;;;;;13.97;66.74;103548.25;7405607;19;1479;-80
2022/12/19 07:50:16;;;;;;;;;;;;;;;13.99;66.49;103542.00;7410808;19;971;-80
2022/12/19 07:52:45;;;;;;;;;;;;;;;14.03;66.43;103561.41;7408216;19;947;-83
2022/12/19 07:55:13;;;;;;;;;;;;;;;14.02;66.23;103544.56;7404378;19;1852;-80
2022/12/19 07:57:43;;;;;;;;;;;;;;;14.01;65.93;103544.63;7404597;19;965;-80
2022/12/19 08:00:15;;;;;;;;;;;;;;;14.05;66.39;103562.25;7404329;19;992;-81
2022/12/19 08:02:43;;;;;;;;;;;;;;;14.09;66.30;103553.31;7401716;19;1406;-80
2022/12/19 08:05:11;;;;;;;;;;;;;;;14.07;66.19;103556.00;7403620;19;1075;-80
2022/12/19 08:07:40;;;;;;;;;;;;;;;14.10;66.01;103563.88;7404003;19;972;-80
2022/12/19 08:10:10;;;;;;;;;;;;;;;14.10;65.83;103577.19;7404118;19;1011;-81
2022/12/19 08:12:38;;;;;;;;;;;;;;;14.09;66.00;103574.59;7404524;19;1076;-79
2022/12/19 08:15:07;;;;;;;;;;;;;;;14.07;66.09;103565.75;7402115;19;1861;-81
2022/12/19 08:17:38;;;;;;;;;;;;;;;14.08;66.21;103572.81;7403722;19;916;-81
2022/12/19 08:20:08;;;;;;;;;;;;;;;14.06;66.05;103564.00;7403628;19;945;-79
2022/12/19 08:22:36;;;;;;;;;;;;;;;14.07;66.45;103576.41;7401598;19;1402;-80
2022/12/19 08:25:05;;;;;;;;;;;;;;;14.06;66.21;103579.97;7403358;19;1040;-81
2022/12/19 08:27:33;;;;;;;;;;;;;;;14.03;66.30;103577.38;7403508;19;967;-81
2022/12/19 08:30:02;;;;;;;;;;;;;;;14.03;66.29;103580.91;7402522;19;957;-79
2022/12/19 08:32:31;;;;;;;;;;;;;;;14.04;66.45;103585.31;7416769;19;988;-79
2022/12/19 08:35:04;;;;;;;;;;;;;;;14.10;66.36;103579.84;7417596;19;1824;-79
2022/12/19 08:37:35;;;;;;;;;;;;;;;14.10;66.33;103576.31;7403737;19;1005;-80
2022/12/19 08:40:03;;;;;;;;;;;;;;;14.09;66.00;103558.63;7402950;19;1018;-79
2022/12/19 08:42:32;;;;;;;;;;;;;;;14.07;66.11;103571.94;7403485;19;1029;-81
2022/12/19 08:45:01;;;;;;;;;;;;;;;14.11;66.03;103557.66;7403112;19;1141;-80
2022/12/19 08:47:30;;;;;;;;;;;;;;;14.15;65.88;103562.94;7403898;19;1073;-81
2022/12/19 08:49:59;;;;;;;;;;;;;;;14.19;65.88;103560.16;7402310;19;1066;-80
2022/12/19 08:52:38;;;;;;;;;;;;;;;14.20;65.74;103564.56;7402643;19;1037;-80
2022/12/19 08:55:06;;;;;;;;;;;;;;;14.24;65.70;103566.22;7402069;19;1853;-81
2022/12/19 08:57:35;;;;;;;;;;;;;;;14.22;65.64;103560.06;7401415;19;967;-80
2022/12/19 09:00:03;;;;;;;;;;;;;;;14.22;65.77;103559.19;7402081;19;1000;-81
2022/12/19 09:02:32;;;;;;;;;;;;;;;14.25;65.47;103559.13;7401296;19;1319;-82
2022/12/19 09:05:00;;;;;;;;;;;;;;;14.22;65.85;103546.75;7402253;19;1185;-81
2022/12/19 09:07:29;;;;;;;;;;;;;;;14.23;65.55;103553.84;7402061;19;1082;-80
2022/12/19 09:10:00;;;;;;;;;;;;;;;14.24;65.67;103558.25;7401951;19;965;-80
2022/12/19 09:12:28;;;;;;;;;;;;;;;14.28;65.67;103553.72;7401925;19;971;-81
2022/12/19 09:14:59;;;;;;;;;;;;;;;14.33;65.51;103558.03;7401058;19;1845;-81
2022/12/19 09:17:27;;;;;;;;;;;;;;;14.33;65.52;103544.72;7400070;19;1383;-80
2022/12/19 09:19:55;;;;;;;;;;;;;;;14.33;65.50;103534.06;7402162;19;961;-79
2022/12/19 09:22:23;;;;;;;;;;;;;;;14.39;65.41;103534.84;7401566;19;964;-79
2022/12/19 09:24:52;;;;;;;;;;;;;;;14.39;65.38;103529.53;7401893;19;975;-80
2022/12/19 09:27:23;;;;;;;;;;;;;;;14.44;65.29;103538.25;7401252;19;1008;-80
2022/12/19 09:29:52;;;;;;;;;;;;;;;14.44;65.09;103533.84;7401915;19;1045;-80
2022/12/19 09:32:21;;;;;;;;;;;;;;;14.43;65.23;103516.09;7402425;19;964;-81
2022/12/19 09:34:49;;;;;;;;;;;;;;;14.44;65.17;103523.19;7400415;19;1850;-81
2022/12/19 09:37:19;;;;;;;;;;;;;;;14.45;65.02;103524.06;7399189;19;1472;-81
2022/12/19 09:39:48;;;;;;;;;;;;;;;14.48;65.31;103523.97;7401556;19;1075;-80
2022/12/19 09:42:28;;;;;;;;;;;;;;;14.50;64.97;103506.16;7401176;19;1074;-80
2022/12/19 09:45:17;;;;;;;;;;;;;;;14.51;65.09;103523.91;7401269;19;972;-80
2022/12/19 09:47:48;;;;;;;;;;;;;;;14.55;64.94;103509.59;7401162;19;952;-80
2022/12/19 09:50:24;;;;;;;;;;;;;;;14.58;64.73;103520.19;7401213;19;952;-80
2022/12/19 09:52:58;;;;;;;;;;;;;;;14.62;65.00;103513.00;7401075;19;988;-80
2022/12/19 09:55:29;;;;;;;;;;;;;;;14.61;64.94;103504.13;7399094;19;1838;-81
2022/12/19 09:58:03;;;;;;;;;;;;;;;14.61;64.80;103493.47;7400716;19;915;-80
2022/12/19 10:00:35;;;;;;;;;;;;;;;14.65;64.74;103483.63;7400662;19;1005;-80
2022/12/19 10:03:06;;;;;;;;;;;;;;;14.69;64.53;103485.28;7399081;19;1108;-79
2022/12/19 10:05:38;;;;;;;;;;;;;;;14.69;64.60;103472.84;7400282;19;1003;-81
2022/12/19 10:08:17;;;;;;;;;;;;;;;14.73;64.46;103491.41;7401014;19;1055;-81
2022/12/19 10:10:49;;;;;;;;;;;;;;;14.76;64.41;103475.34;7406075;19;947;-81
2022/12/19 10:13:26;;;;;;;;;;;;;;;14.77;64.51;103477.09;7407593;19;1075;-79
2022/12/19 10:15:59;;;;;;;;;;;;;;;14.77;64.54;103477.09;7405176;19;1849;-79
2022/12/19 10:18:33;;;;;;;;;;;;;;;14.76;64.31;103464.69;7406971;19;986;-81
2022/12/19 10:21:06;;;;;;;;;;;;;;;14.80;64.37;103482.31;7408210;19;1049;-80
2022/12/19 10:23:52;;;;;;;;;;;;;;;14.81;64.38;103474.31;7407262;19;979;-83
2022/12/19 10:26:22;;;;;;;;;;;;;;;14.81;64.52;103465.44;7406609;19;1074;-81
2022/12/19 10:29:04;;;;;;;;;;;;;;;14.80;64.42;103474.34;7407063;19;1031;-80
2022/12/19 10:31:35;;;;;;;;;;;;;;;14.75;64.57;103473.59;7406904;19;1045;-80
2022/12/19 10:34:08;;;;;;;;;;;;;;;14.71;64.84;103470.16;7407159;19;1010;-80
2022/12/19 10:36:41;;;;;;;;;;;;;;;14.71;64.75;103475.47;7404424;19;1372;-85
2022/12/19 10:39:14;;;;;;;;;;;;;;;14.62;64.64;103465.94;7422720;19;1038;-79
2022/12/19 10:41:50;;;;;;;;;;;;;;;14.64;64.93;103456.13;7422173;19;959;-80
2022/12/19 10:44:24;;;;;;;;;;;;;;;14.60;64.99;103458.91;7407504;19;1021;-80
2022/12/19 10:46:53;;;;;;;;;;;;;;;14.59;65.20;103452.69;7406855;19;1050;-81
2022/12/19 10:49:23;;;;;;;;;;;;;;;14.56;64.93;103447.44;7406700;19;1058;-80
2022/12/19 10:51:58;;;;;;;;;;;;;;;14.55;65.22;103455.47;7406433;19;1057;-79
2022/12/19 10:54:27;;;;;;;;;;;;;;;14.54;65.02;103454.56;7406531;19;1847;-80
2022/12/19 10:56:55;;;;;;;;;;;;;;;14.52;65.01;103411.13;7407444;19;951;-79
2022/12/19 10:59:26;;;;;;;;;;;;;;;14.50;64.96;103443.16;7406324;19;1072;-79
2022/12/19 11:01:55;;;;;;;;;;;;;;;14.45;65.12;103442.38;7403740;19;1498;-80
2022/12/19 11:04:31;;;;;;;;;;;;;;;14.46;65.15;103435.25;7406158;19;977;-80
2022/12/19 11:07:19;;;;;;;;;;;;;;;14.42;65.14;103454.88;7406498;19;961;-80
2022/12/19 11:09:48;;;;;;;;;;;;;;;14.41;65.25;103440.72;7407390;19;1010;-80
2022/12/19 11:12:19;;;;;;;;;;;;;;;14.42;65.39;103452.22;7406087;19;884;-80
2022/12/19 11:14:54;;;;;;;;;;;;;;;14.40;65.25;103444.28;7406697;19;1865;-81
2022/12/19 11:17:27;;;;;;;;;;;;;;;14.38;65.40;103442.56;7406566;19;988;-80
2022/12/19 11:19:57;;;;;;;;;;;;;;;14.36;65.46;103439.09;7406145;19;1029;-79
2022/12/19 11:22:27;;;;;;;;;;;;;;;14.33;65.66;103429.41;7403858;19;951;-82
2022/12/19 11:24:56;;;;;;;;;;;;;;;14.31;65.50;103431.22;7406170;19;825;-79
2022/12/19 11:27:39;;;;;;;;;;;;;;;14.31;65.58;103425.91;7406080;19;1012;-80
2022/12/19 11:30:21;;;;;;;;;;;;;;;14.30;65.67;103433.03;7407568;19;1029;-80
2022/12/19 11:32:50;;;;;;;;;;;;;;;14.30;65.72;103424.13;7407187;19;1063;-80
2022/12/19 11:35:20;;;;;;;;;;;;;;;14.30;65.59;103435.69;7405304;19;1845;-80
2022/12/19 11:37:51;;;;;;;;;;;;;;;14.24;65.54;103427.81;7403831;19;1468;-79
2022/12/19 11:40:24;;;;;;;;;;;;;;;14.29;65.52;103431.25;7407355;19;972;-79
2022/12/19 11:42:56;;;;;;;;;;;;;;;14.27;65.54;103435.75;7405828;19;919;-80
2022/12/19 11:45:32;;;;;;;;;;;;;;;14.26;65.95;103433.13;7406302;19;976;-80
2022/12/19 11:48:03;;;;;;;;;;;;;;;14.27;65.53;103424.25;7407019;19;985;-79
2022/12/19 11:50:33;;;;;;;;;;;;;;;14.25;65.68;103432.25;7406462;19;970;-84
2022/12/19 11:53:06;;;;;;;;;;;;;;;14.26;65.84;103423.34;7407402;19;1103;-79
2022/12/19 11:55:41;;;;;;;;;;;;;;;14.31;65.77;103432.09;7404477;19;1837;-79
2022/12/19 11:58:11;;;;;;;;;;;;;;;14.31;65.56;103426.78;7404551;19;1412;-79
2022/12/19 12:00:47;;;;;;;;;;;;;;;14.34;65.60;103420.47;7407212;19;1347;-79
2022/12/19 12:03:31;;;;;;;;;;;;;;;14.28;65.73;103437.50;7405851;19;997;-78
2022/12/19 12:05:59;;;;;;;;;;;;;;;14.27;65.50;103424.25;7407853;19;943;-80
2022/12/19 12:08:42;;;;;;;;;;;;;;;14.29;65.42;103428.59;7406792;19;968;-79
2022/12/19 12:11:27;;;;;;;;;;;;;;;14.28;65.54;103437.50;7405883;19;1013;-79
2022/12/19 12:14:15;;;;;;;;;;;;;;;14.33;65.28;103419.63;7405994;19;1059;-78
2022/12/19 12:16:54;;;;;;;;;;;;;;;14.29;65.51;103436.59;7406024;19;1845;-78
2022/12/19 12:19:28;;;;;;;;;;;;;;;14.30;65.49;103433.03;7409698;19;958;-79
2022/12/19 12:22:02;;;;;;;;;;;;;;;14.29;65.61;103436.59;7408124;19;980;-78
2022/12/19 12:24:37;;;;;;;;;;;;;;;14.29;65.42;103443.69;7406129;19;1003;-79
2022/12/19 12:27:10;;;;;;;;;;;;;;;14.24;65.62;103441.13;7405932;19;1031;-81
2022/12/19 12:29:45;;;;;;;;;;;;;;;14.20;65.97;103443.91;7407184;19;1026;-79
2022/12/19 12:32:24;;;;;;;;;;;;;;;14.18;65.84;103433.31;7404493;19;952;-79
2022/12/19 12:34:57;;;;;;;;;;;;;;;14.20;65.82;103447.44;7402707;19;1846;-79
2022/12/19 12:37:39;;;;;;;;;;;;;;;14.17;65.77;103428.06;7403205;19;963;-78
2022/12/19 12:40:19;;;;;;;;;;;;;;;14.17;65.83;103436.91;7403345;19;1018;-78
2022/12/19 12:42:54;;;;;;;;;;;;;;;14.16;65.76;103440.47;7403550;19;1380;-79
2022/12/19 12:45:24;;;;;;;;;;;;;;;14.17;65.60;103459.97;7426861;19;932;-78
2022/12/19 12:47:56;;;;;;;;;;;;;;;14.10;66.09;103444.13;7407646;19;904;-79
2022/12/19 12:50:26;;;;;;;;;;;;;;;14.13;66.09;103433.44;7403525;19;1468;-80
2022/12/19 12:52:56;;;;;;;;;;;;;;;14.15;65.95;103451.16;7404955;19;1387;-80
2022/12/19 12:55:28;;;;;;;;;;;;;;;14.12;65.92;103450.31;7403494;19;1866;-79
2022/12/19 12:57:56;;;;;;;;;;;;;;;14.20;65.73;103457.22;7407516;19;1004;-79
2022/12/19 13:00:27;;;;;;;;;;;;;;;14.20;65.81;103444.78;7407302;19;968;-80
2022/12/19 13:02:59;;;;;;;;;;;;;;;14.24;65.62;103453.56;7405689;19;1504;-79
2022/12/19 13:05:36;;;;;;;;;;;;;;;14.25;65.55;103445.56;7407587;19;1172;-78
2022/12/19 13:08:20;;;;;;;;;;;;;;;14.24;65.60;103445.59;7405234;19;1031;-79
2022/12/19 13:10:54;;;;;;;;;;;;;;;14.22;65.47;103442.09;7403324;19;1271;-80
2022/12/19 13:13:43;;;;;;;;;;;;;;;14.26;65.76;103449.94;7402119;19;940;-79